Pentraeth, United Kingdom
Current Conditions -  °F | °C
As of 6:50 PM on Friday 31 Oct 2014 (Local Time) from EGOV Reporting Station
Haze Haze  
Wind Chill: 61°   Ceiling: 1400
Heat Index: 61°   Visibility: 4mi
Dew Point: 59°   Wind: 24mph
Humidity: 94%   Direction: 170°S
Pressure: 29.68"   Gusts: NA
Location:  53.27°N, 4.24°W
Report Text: EGOV 311850Z AUTO 17021KT 6000 HZ BKN014/// BKN022/// 16/15 Q1005 RERA
Loading
Personal Weather Stations






























Interactive Weather Map
Tropical Storm Tracking
New forecast layout! Learn more

10-Day Weather Forecast

Advertisements
Track Severe Weather on mobile